createdAt,value
2019-03-24T00:00:13.415Z,5.80
2019-03-24T00:02:54.247Z,3.50
2019-03-24T00:05:35.041Z,4.57
2019-03-24T00:08:15.786Z,4.50
2019-03-24T00:10:56.555Z,3.87
2019-03-24T00:13:37.583Z,4.63
2019-03-24T00:16:18.486Z,5.60
2019-03-24T00:18:59.283Z,5.43
2019-03-24T00:21:39.981Z,4.63
2019-03-24T00:24:20.887Z,4.87
2019-03-24T00:27:01.697Z,4.97
2019-03-24T00:29:30.595Z,4.73
2019-03-24T00:32:18.391Z,4.87
2019-03-24T00:34:59.475Z,5.00
2019-03-24T00:37:40.218Z,4.43
2019-03-24T00:40:21.071Z,5.70
2019-03-24T00:43:02.147Z,4.70
2019-03-24T00:45:42.867Z,4.40
2019-03-24T00:48:23.766Z,3.67
2019-03-24T00:51:04.371Z,4.67
2019-03-24T00:53:45.404Z,4.83
2019-03-24T00:56:26.146Z,4.83
2019-03-24T00:59:07.147Z,4.30
2019-03-24T01:01:48.005Z,4.80
2019-03-24T01:04:28.881Z,4.73
2019-03-24T01:06:57.483Z,4.30
2019-03-24T01:09:45.289Z,4.63
2019-03-24T01:12:33.163Z,5.37
2019-03-24T01:15:13.543Z,5.73
2019-03-24T01:17:54.193Z,4.57
2019-03-24T01:20:34.944Z,5.23
2019-03-24T01:23:15.608Z,4.73
2019-03-24T01:25:56.428Z,4.97
2019-03-24T01:28:37.188Z,4.53
2019-03-24T01:31:18.068Z,4.93
2019-03-24T01:33:58.903Z,5.53
2019-03-24T01:36:39.688Z,5.33
2019-03-24T01:39:20.619Z,4.27
2019-03-24T01:42:01.343Z,5.43
2019-03-24T01:44:29.811Z,4.73
2019-03-24T01:47:17.612Z,5.53
2019-03-24T01:50:06.079Z,5.37
2019-03-24T01:52:47.120Z,4.27
2019-03-24T01:55:27.867Z,4.60
2019-03-24T01:58:08.604Z,5.40
2019-03-24T02:00:49.075Z,5.37
2019-03-24T02:03:29.726Z,4.37
2019-03-24T02:06:10.367Z,5.00
2019-03-24T02:08:51.234Z,4.40
2019-03-24T02:11:31.751Z,3.83
2019-03-24T02:14:12.708Z,5.70
2019-03-24T02:16:53.398Z,4.17
2019-03-24T02:19:33.794Z,5.07
2019-03-24T02:22:14.262Z,4.60
2019-03-24T02:24:55.680Z,4.83
2019-03-24T02:27:36.772Z,4.50
2019-03-24T02:30:17.648Z,4.67
2019-03-24T02:32:58.528Z,5.13
2019-03-24T02:35:39.199Z,5.03
2019-03-24T02:38:19.822Z,5.23
2019-03-24T02:41:00.504Z,5.07
2019-03-24T02:43:41.159Z,5.73
2019-03-24T02:46:24.685Z,6.20
2019-03-24T02:48:51.949Z,5.53
2019-03-24T02:51:39.749Z,5.63
2019-03-24T02:54:20.864Z,5.00
2019-03-24T02:57:01.686Z,5.03
2019-03-24T02:59:42.699Z,4.87
2019-03-24T03:02:23.689Z,5.23
2019-03-24T03:05:04.537Z,4.33
2019-03-24T03:07:45.646Z,4.80
2019-03-24T03:10:28.053Z,4.50
2019-03-24T03:13:09.213Z,4.83
2019-03-24T03:15:49.901Z,4.93
2019-03-24T03:18:31.329Z,4.93
2019-03-24T03:21:12.263Z,4.63
2019-03-24T03:23:53.186Z,4.17
2019-03-24T03:26:34.087Z,5.00
2019-03-24T03:29:14.501Z,5.40
2019-03-24T03:31:55.170Z,4.80
2019-03-24T03:34:35.968Z,5.50
2019-03-24T03:37:16.483Z,4.73
2019-03-24T03:39:58.417Z,5.07
2019-03-24T03:42:39.028Z,4.80
2019-03-24T03:45:19.871Z,4.70
2019-03-24T03:48:00.995Z,4.83
2019-03-24T03:50:29.693Z,3.97
2019-03-24T03:53:17.482Z,5.33
2019-03-24T03:56:05.363Z,5.77
2019-03-24T03:58:45.686Z,4.53
2019-03-24T04:01:26.419Z,4.20
2019-03-24T04:04:07.087Z,4.97
2019-03-24T04:06:47.952Z,5.13
2019-03-24T04:09:28.638Z,5.13
2019-03-24T04:12:09.741Z,5.10
2019-03-24T04:14:50.700Z,5.20
2019-03-24T04:17:31.409Z,4.47
2019-03-24T04:20:12.452Z,4.50
2019-03-24T04:22:53.329Z,5.23
2019-03-24T04:25:34.015Z,5.20
2019-03-24T04:28:14.849Z,4.53
2019-03-24T04:30:55.531Z,4.70
2019-03-24T04:33:36.294Z,4.53
2019-03-24T04:36:16.681Z,5.03
2019-03-24T04:38:57.605Z,4.63
2019-03-24T04:41:38.514Z,5.67
2019-03-24T04:44:19.243Z,5.03
2019-03-24T04:46:59.864Z,5.20
2019-03-24T04:49:40.676Z,5.07
2019-03-24T04:52:21.171Z,4.73
2019-03-24T04:55:01.600Z,6.03
2019-03-24T04:57:42.532Z,5.07
2019-03-24T05:00:23.152Z,5.10
2019-03-24T05:03:03.704Z,5.00
2019-03-24T05:05:44.524Z,5.00
2019-03-24T05:08:25.070Z,4.77
2019-03-24T05:11:05.734Z,4.90
2019-03-24T05:13:46.811Z,5.10
2019-03-24T05:16:27.728Z,5.37
2019-03-24T05:19:08.430Z,4.70
2019-03-24T05:21:48.898Z,5.67
2019-03-24T05:24:29.730Z,4.50
2019-03-24T05:27:10.588Z,4.83
2019-03-24T05:29:51.287Z,4.87
2019-03-24T05:32:32.196Z,6.33
2019-03-24T05:35:13.238Z,6.30
2019-03-24T05:37:54.274Z,5.37
2019-03-24T05:40:34.731Z,5.03
2019-03-24T05:43:15.695Z,4.73
2019-03-24T05:45:56.152Z,5.60
2019-03-24T05:48:36.972Z,4.83
2019-03-24T05:51:17.670Z,4.70
2019-03-24T05:53:58.359Z,5.07
2019-03-24T05:56:39.101Z,5.30
2019-03-24T05:59:19.731Z,5.63
2019-03-24T06:02:00.296Z,4.53
2019-03-24T06:04:41.838Z,5.97
2019-03-24T06:07:22.479Z,6.03
2019-03-24T06:10:03.553Z,5.00
2019-03-24T06:12:44.342Z,5.07
2019-03-24T06:15:25.075Z,5.33
2019-03-24T06:18:05.447Z,5.40
2019-03-24T06:20:45.803Z,5.63
2019-03-24T06:23:26.532Z,5.17
2019-03-24T06:26:07.198Z,4.43
2019-03-24T06:28:48.063Z,4.67
2019-03-24T06:31:28.662Z,4.63
2019-03-24T06:34:09.689Z,5.67
2019-03-24T06:36:50.128Z,5.83
2019-03-24T06:39:30.976Z,4.20
2019-03-24T06:42:11.451Z,6.13
2019-03-24T06:44:52.653Z,5.47
2019-03-24T06:47:33.179Z,5.80
2019-03-24T06:50:14.016Z,5.77
2019-03-24T06:52:54.349Z,5.50
2019-03-24T06:55:35.005Z,5.67
2019-03-24T06:58:15.972Z,5.13
2019-03-24T07:00:56.896Z,5.00
2019-03-24T07:03:37.796Z,5.87
2019-03-24T07:06:18.299Z,4.90
2019-03-24T07:08:59.003Z,4.87
2019-03-24T07:11:39.772Z,6.23
2019-03-24T07:14:20.684Z,6.10
2019-03-24T07:17:00.908Z,4.83
2019-03-24T07:19:41.980Z,5.53
2019-03-24T07:22:22.822Z,4.73
2019-03-24T07:24:51.299Z,5.33
2019-03-24T07:27:39.096Z,5.87
2019-03-24T07:30:19.811Z,5.10
2019-03-24T07:33:00.700Z,4.33
2019-03-24T07:35:41.371Z,5.60
2019-03-24T07:38:22.050Z,5.27
2019-03-24T07:41:02.685Z,4.70
2019-03-24T07:43:43.654Z,5.50
2019-03-24T07:46:25.236Z,5.57
2019-03-24T07:49:05.943Z,6.37
2019-03-24T07:51:46.645Z,5.77
2019-03-24T07:54:15.123Z,5.30
2019-03-24T07:57:02.912Z,4.93
2019-03-24T07:59:43.676Z,5.23
2019-03-24T08:02:24.445Z,4.50
2019-03-24T08:05:05.120Z,5.07
2019-03-24T08:07:45.929Z,5.50
2019-03-24T08:10:26.591Z,4.90
2019-03-24T08:13:08.519Z,4.53
2019-03-24T08:15:49.522Z,4.50
2019-03-24T08:18:30.388Z,5.00
2019-03-24T08:21:10.716Z,5.10
2019-03-24T08:23:51.271Z,5.43
2019-03-24T08:26:31.807Z,5.43
2019-03-24T08:29:12.568Z,4.60
2019-03-24T08:31:53.086Z,5.20
2019-03-24T08:34:34.115Z,5.27
2019-03-24T08:37:14.583Z,4.80
2019-03-24T08:39:55.090Z,4.07
2019-03-24T08:42:35.646Z,4.93
2019-03-24T08:45:16.426Z,4.50
2019-03-24T08:47:57.085Z,4.10
2019-03-24T08:50:37.702Z,4.47
2019-03-24T08:53:18.201Z,3.77
2019-03-24T08:55:59.303Z,3.83
2019-03-24T08:58:38.093Z,3.77
2019-03-24T09:01:25.904Z,3.93
2019-03-24T09:03:54.355Z,3.70
2019-03-24T09:06:42.258Z,4.57
2019-03-24T09:09:30.139Z,3.90
2019-03-24T09:12:10.499Z,3.70
2019-03-24T09:14:51.193Z,2.93
2019-03-24T09:17:31.852Z,3.53
2019-03-24T09:20:12.590Z,4.33
2019-03-24T09:22:53.408Z,3.40
2019-03-24T09:25:34.494Z,3.93
2019-03-24T09:28:15.242Z,4.40
2019-03-24T09:30:56.123Z,3.73
2019-03-24T09:33:37.057Z,4.07
2019-03-24T09:36:17.860Z,3.90
2019-03-24T09:38:58.729Z,4.20
2019-03-24T09:41:41.529Z,2.90
2019-03-24T09:44:20.333Z,3.30
2019-03-24T09:47:00.777Z,3.57
2019-03-24T09:49:41.643Z,3.80
2019-03-24T09:52:22.709Z,4.27
2019-03-24T09:55:03.848Z,4.23
2019-03-24T09:57:44.648Z,3.50
2019-03-24T10:00:25.466Z,3.90
2019-03-24T10:03:06.495Z,3.20
2019-03-24T10:05:47.277Z,3.97
2019-03-24T10:08:15.827Z,3.77
2019-03-24T10:13:58.755Z,3.90
2019-03-24T10:16:39.642Z,3.10
2019-03-24T10:19:20.387Z,3.77
2019-03-24T10:22:01.447Z,4.27
2019-03-24T10:24:42.235Z,3.70
2019-03-24T10:27:23.149Z,3.37
2019-03-24T10:30:03.865Z,3.40
2019-03-24T10:32:44.601Z,3.63
2019-03-24T10:35:25.635Z,4.27
2019-03-24T10:38:06.535Z,3.90
2019-03-24T10:40:47.793Z,3.40
2019-03-24T10:43:28.779Z,3.47
2019-03-24T10:46:09.510Z,3.93
2019-03-24T10:48:50.385Z,2.67
2019-03-24T10:51:31.188Z,2.80
2019-03-24T10:54:10.220Z,2.90
2019-03-24T10:56:50.458Z,2.97
2019-03-24T10:59:31.513Z,3.30
2019-03-24T11:02:12.395Z,3.50
2019-03-24T11:04:40.926Z,3.63
2019-03-24T11:07:28.813Z,3.33
2019-03-24T11:10:16.679Z,3.70
2019-03-24T11:12:57.231Z,4.10
2019-03-24T11:15:38.009Z,4.37
2019-03-24T11:18:18.718Z,3.73
2019-03-24T11:20:47.264Z,3.63
2019-03-24T11:23:35.074Z,3.23
2019-03-24T11:26:23.027Z,3.47
2019-03-24T11:29:03.387Z,3.33
2019-03-24T11:31:44.244Z,3.80
2019-03-24T11:34:25.237Z,2.80
2019-03-24T11:37:05.907Z,3.00
2019-03-24T11:39:48.043Z,3.37
2019-03-24T11:42:28.932Z,2.40
2019-03-24T11:45:09.438Z,2.70
2019-03-24T11:47:50.967Z,3.67
2019-03-24T11:50:32.169Z,3.33
2019-03-24T11:53:13.054Z,3.90
2019-03-24T11:55:53.585Z,2.97
2019-03-24T11:58:34.127Z,4.10
2019-03-24T12:01:15.331Z,4.23
2019-03-24T12:03:55.901Z,4.00
2019-03-24T12:06:36.462Z,3.57
2019-03-24T12:09:17.358Z,3.70
2019-03-24T12:11:58.030Z,3.73
2019-03-24T12:14:38.475Z,4.27
2019-03-24T12:17:20.741Z,3.63
2019-03-24T12:19:59.527Z,2.93
2019-03-24T12:22:47.330Z,3.50
2019-03-24T12:25:28.340Z,3.10
2019-03-24T12:28:09.404Z,3.00
2019-03-24T12:30:50.032Z,3.20
2019-03-24T12:33:32.021Z,3.17
2019-03-24T12:36:12.714Z,3.00
2019-03-24T12:38:53.464Z,3.00
2019-03-24T12:41:34.502Z,2.80
2019-03-24T12:44:14.767Z,2.30
2019-03-24T12:46:55.655Z,2.10
2019-03-24T12:49:36.550Z,2.33
2019-03-24T12:52:17.039Z,2.63
2019-03-24T12:54:58.357Z,2.63
2019-03-24T12:57:39.493Z,3.00
2019-03-24T13:00:20.845Z,3.10
2019-03-24T13:03:01.699Z,3.30
2019-03-24T13:05:43.204Z,3.50
2019-03-24T13:08:23.875Z,3.37
2019-03-24T13:13:46.523Z,3.40
2019-03-24T13:16:27.014Z,3.17
2019-03-24T13:19:08.044Z,3.93
2019-03-24T13:21:48.824Z,3.40
2019-03-24T13:24:30.484Z,3.53
2019-03-24T13:27:10.960Z,3.03
2019-03-24T13:29:52.131Z,2.60
2019-03-24T13:32:33.357Z,2.57
2019-03-24T13:35:13.995Z,3.23
2019-03-24T13:37:54.455Z,3.17
2019-03-24T13:40:35.174Z,3.63
2019-03-24T13:43:16.063Z,2.93
2019-03-24T13:45:57.394Z,2.80
2019-03-24T13:48:37.967Z,3.40
2019-03-24T13:51:18.830Z,3.20
2019-03-24T13:53:59.962Z,2.60
2019-03-24T13:56:40.466Z,3.40
2019-03-24T13:59:21.318Z,3.23
2019-03-24T14:02:01.795Z,3.13
2019-03-24T14:04:42.612Z,2.40
2019-03-24T14:07:23.487Z,3.00
2019-03-24T14:13:07.547Z,2.73
2019-03-24T14:15:48.341Z,2.50
2019-03-24T14:18:28.957Z,2.60
2019-03-24T14:21:09.670Z,2.50
2019-03-24T14:23:50.325Z,2.73
2019-03-24T14:26:31.428Z,2.90
2019-03-24T14:29:12.112Z,3.60
2019-03-24T14:31:52.867Z,2.60
2019-03-24T14:34:33.727Z,3.10
2019-03-24T14:37:14.579Z,2.77
2019-03-24T14:39:55.346Z,3.67
2019-03-24T14:42:35.707Z,2.70
2019-03-24T14:45:16.376Z,2.57
2019-03-24T14:47:57.013Z,2.70
2019-03-24T14:50:37.679Z,3.10
2019-03-24T14:53:18.253Z,2.57
2019-03-24T14:55:59.155Z,2.40
2019-03-24T14:58:39.864Z,2.93
2019-03-24T15:01:20.764Z,2.87
2019-03-24T15:04:01.227Z,2.60
2019-03-24T15:06:42.172Z,2.27
2019-03-24T15:09:23.419Z,2.47
2019-03-24T15:12:04.274Z,2.60
2019-03-24T15:14:45.171Z,2.17
2019-03-24T15:17:25.822Z,2.60
2019-03-24T15:20:06.599Z,2.43
2019-03-24T15:22:47.152Z,2.07
2019-03-24T15:25:28.024Z,1.60
2019-03-24T15:28:08.992Z,1.90
2019-03-24T15:30:49.491Z,2.37
2019-03-24T15:33:30.443Z,2.00
2019-03-24T15:36:10.948Z,2.57
2019-03-24T15:38:51.723Z,2.10
2019-03-24T15:41:32.625Z,3.40
2019-03-24T15:44:13.517Z,1.97
2019-03-24T15:46:54.224Z,2.20
2019-03-24T15:49:34.750Z,1.70
2019-03-24T15:52:15.647Z,2.17
2019-03-24T15:54:56.388Z,2.23
2019-03-24T15:57:37.330Z,2.30
2019-03-24T16:00:18.056Z,3.37
2019-03-24T16:02:59.662Z,2.60
2019-03-24T16:05:40.239Z,2.87
2019-03-24T16:08:20.897Z,2.00
2019-03-24T16:11:01.701Z,2.17
2019-03-24T16:13:42.283Z,2.50
2019-03-24T16:16:23.332Z,2.63
2019-03-24T16:19:04.189Z,3.00
2019-03-24T16:21:45.135Z,2.97
2019-03-24T16:24:26.032Z,2.37
2019-03-24T16:27:06.574Z,1.97
2019-03-24T16:29:47.431Z,2.13
2019-03-24T16:32:27.954Z,2.73
2019-03-24T16:35:08.209Z,2.80
2019-03-24T16:37:49.100Z,2.10
2019-03-24T16:40:31.286Z,2.17
2019-03-24T16:43:12.357Z,2.27
2019-03-24T16:45:53.120Z,2.33
2019-03-24T16:48:36.983Z,2.40
2019-03-24T16:51:16.096Z,2.90
2019-03-24T16:53:44.564Z,2.50
2019-03-24T16:56:32.507Z,2.20
2019-03-24T16:59:13.422Z,2.43
2019-03-24T17:01:54.110Z,2.83
2019-03-24T17:04:35.045Z,2.60
2019-03-24T17:07:16.032Z,2.63
2019-03-24T17:09:56.413Z,2.30
2019-03-24T17:12:37.107Z,3.20
2019-03-24T17:15:17.674Z,2.80
2019-03-24T17:17:58.106Z,4.33
2019-03-24T17:20:39.048Z,2.43
2019-03-24T17:23:20.078Z,3.20
2019-03-24T17:26:01.073Z,3.03
2019-03-24T17:28:42.292Z,3.27
2019-03-24T17:31:22.953Z,3.10
2019-03-24T17:34:03.609Z,2.47
2019-03-24T17:36:44.375Z,2.83
2019-03-24T17:39:24.903Z,2.67
2019-03-24T17:42:05.904Z,2.73
2019-03-24T17:44:46.712Z,3.00
2019-03-24T17:47:27.560Z,3.47
2019-03-24T17:50:08.370Z,3.07
2019-03-24T17:52:48.717Z,3.63
2019-03-24T17:55:31.059Z,3.57
2019-03-24T17:58:10.132Z,4.13
2019-03-24T18:00:58.009Z,4.53
2019-03-24T18:03:38.306Z,5.10
2019-03-24T18:06:18.885Z,3.73
2019-03-24T18:08:59.479Z,4.20
2019-03-24T18:11:40.191Z,3.67
2019-03-24T18:14:20.585Z,3.43
2019-03-24T18:17:01.479Z,4.10
2019-03-24T18:19:42.781Z,3.40
2019-03-24T18:22:23.771Z,3.53
2019-03-24T18:25:02.556Z,4.00
2019-03-24T18:27:50.685Z,4.13
2019-03-24T18:30:31.259Z,3.37
2019-03-24T18:33:12.271Z,3.43
2019-03-24T18:35:53.313Z,3.60
2019-03-24T18:38:33.971Z,3.73
2019-03-24T18:41:14.610Z,3.77
2019-03-24T18:43:55.424Z,4.43
2019-03-24T18:46:36.344Z,3.60
2019-03-24T18:49:16.950Z,4.00
2019-03-24T18:51:57.901Z,2.60
2019-03-24T18:54:38.720Z,4.20
2019-03-24T18:57:19.318Z,4.57
2019-03-24T19:00:00.339Z,4.43
2019-03-24T19:02:41.309Z,3.90
2019-03-24T19:05:21.906Z,4.47
2019-03-24T19:08:02.628Z,4.80
2019-03-24T19:10:43.369Z,4.23
2019-03-24T19:13:24.481Z,4.23
2019-03-24T19:16:05.377Z,5.23
2019-03-24T19:18:46.304Z,5.37
2019-03-24T19:21:26.830Z,6.20
2019-03-24T19:24:07.361Z,5.17
2019-03-24T19:26:47.926Z,6.17
2019-03-24T19:29:28.825Z,6.27
2019-03-24T19:32:09.901Z,5.27
2019-03-24T19:34:50.560Z,6.20
2019-03-24T19:37:33.248Z,5.27
2019-03-24T19:40:13.949Z,5.50
2019-03-24T19:42:54.450Z,5.57
2019-03-24T19:45:35.102Z,5.20
2019-03-24T19:48:15.896Z,4.73
2019-03-24T19:50:56.775Z,4.77
2019-03-24T19:53:37.536Z,5.53
2019-03-24T19:56:19.839Z,4.97
2019-03-24T19:59:00.804Z,6.00
2019-03-24T20:01:41.131Z,5.10
2019-03-24T20:04:22.023Z,5.17
2019-03-24T20:07:02.827Z,4.93
2019-03-24T20:09:43.603Z,3.90
2019-03-24T20:12:24.224Z,4.57
2019-03-24T20:15:04.777Z,5.03
2019-03-24T20:17:45.574Z,4.20
2019-03-24T20:20:26.554Z,4.03
2019-03-24T20:23:07.538Z,4.03
2019-03-24T20:25:48.581Z,3.53
2019-03-24T20:28:29.568Z,3.63
2019-03-24T20:31:10.489Z,3.53
2019-03-24T20:33:51.595Z,3.17
2019-03-24T20:36:31.993Z,4.63
2019-03-24T20:39:12.583Z,3.70
2019-03-24T20:41:52.938Z,3.57
2019-03-24T20:44:33.708Z,4.07
2019-03-24T20:47:14.477Z,3.77
2019-03-24T20:49:55.259Z,3.43
2019-03-24T20:52:36.179Z,3.37
2019-03-24T20:55:17.083Z,3.37
2019-03-24T20:57:58.137Z,3.43
2019-03-24T21:00:39.018Z,3.67
2019-03-24T21:03:19.963Z,3.60
2019-03-24T21:06:00.351Z,3.53
2019-03-24T21:08:40.935Z,3.70
2019-03-24T21:11:21.877Z,3.70
2019-03-24T21:14:02.666Z,3.90
2019-03-24T21:16:43.565Z,3.53
2019-03-24T21:19:24.224Z,4.13
2019-03-24T21:22:05.054Z,3.90
2019-03-24T21:24:45.506Z,4.03
2019-03-24T21:27:26.441Z,3.73
2019-03-24T21:30:08.041Z,3.80
2019-03-24T21:32:51.426Z,3.83
2019-03-24T21:35:31.857Z,3.17
2019-03-24T21:38:12.809Z,3.23
2019-03-24T21:40:53.511Z,2.80
2019-03-24T21:43:34.325Z,4.23
2019-03-24T21:46:15.341Z,3.60
2019-03-24T21:48:57.729Z,3.13
2019-03-24T21:51:38.781Z,3.50
2019-03-24T21:54:19.651Z,3.60
2019-03-24T21:57:00.841Z,3.33
2019-03-24T21:59:41.248Z,3.30
2019-03-24T22:02:21.904Z,3.30
2019-03-24T22:05:02.319Z,3.10
2019-03-24T22:07:43.146Z,3.20
2019-03-24T22:10:23.909Z,3.67
2019-03-24T22:13:04.957Z,2.50
2019-03-24T22:15:45.945Z,3.43
2019-03-24T22:18:26.747Z,2.63
2019-03-24T22:21:07.624Z,2.80
2019-03-24T22:23:36.160Z,3.13
2019-03-24T22:26:23.961Z,2.90
2019-03-24T22:29:05.035Z,3.50
2019-03-24T22:31:46.181Z,3.47
2019-03-24T22:34:27.104Z,7.20
2019-03-24T22:37:15.862Z,3.13
2019-03-24T22:39:50.960Z,3.00
2019-03-24T22:42:31.772Z,3.10
2019-03-24T22:45:13.029Z,3.77
2019-03-24T22:47:53.934Z,3.60
2019-03-24T22:50:34.307Z,2.80
2019-03-24T22:53:14.911Z,3.10
2019-03-24T22:55:55.707Z,3.43
2019-03-24T22:58:36.553Z,3.70
2019-03-24T23:01:17.574Z,3.43
2019-03-24T23:03:58.486Z,3.00
2019-03-24T23:06:39.263Z,4.03
2019-03-24T23:09:19.853Z,3.53
2019-03-24T23:12:00.306Z,4.00
2019-03-24T23:14:41.074Z,4.43
2019-03-24T23:17:21.826Z,3.40
2019-03-24T23:20:02.305Z,3.27
2019-03-24T23:22:43.058Z,3.40
2019-03-24T23:25:24.158Z,3.87
2019-03-24T23:28:04.735Z,3.10
2019-03-24T23:30:45.367Z,3.27
2019-03-24T23:33:25.724Z,3.53
2019-03-24T23:36:06.390Z,2.97
2019-03-24T23:38:47.479Z,3.33
2019-03-24T23:41:27.811Z,3.40
2019-03-24T23:44:08.650Z,3.60
2019-03-24T23:46:49.474Z,3.40
2019-03-24T23:49:30.055Z,4.20
2019-03-24T23:52:10.783Z,3.93
2019-03-24T23:54:51.552Z,3.60
2019-03-24T23:57:32.612Z,4.23
